• Join FlightAware (Why Join?)
  • Login
  • US Flag 
09:58PM EDT


 

Airport Tracker/Info


-or-


 

Live Flight TrackerFlight Track Log ✈ N180KT ✈ 17-May-2013 ✈ KRYY - KCRG

Flight Track Log - Related Links

Times and Time Zones

All times are in EDT time to prevent confusion due to time zone crossing. See the N180KT flight status page for this flight to view local times or setup timezone preferences in your user account.

Time Position Orientation Groundspeed Altitude Reporting Facility
EDT Latitude Longitude Course Direction KTS MPH feet Rate Location/Type
12:16PM 34.0167 -84.6333 239° Southwest 111 128 2,200  Level Atlanta TRACON
12:17PM 34.0000 -84.6667 239° Southwest 122 140 3,300 900 Climbing Atlanta TRACON
12:18PM 33.9667 -84.6500 157° South 125 144 4,100 600 Climbing Atlanta TRACON
12:19PM 33.9500 -84.6167 121° Southeast 142 163 4,500 480 Climbing Atlanta TRACON
12:20PM 33.9167 -84.5833 140° Southeast 136 157 5,100 300 Climbing Atlanta TRACON
12:21PM 33.9000 -84.5333 112° Southeast 154 177 5,100 -60 Level Atlanta TRACON
12:22PM 33.8667 -84.5000 140° Southeast 151 174 5,000 -60 Descending Atlanta TRACON
12:23PM 33.8333 -84.4833 157° South 149 171 5,000  Level Atlanta TRACON
12:23PM 33.8000 -84.4500 140° Southeast 152 175 5,100  Climbing Atlanta TRACON
12:24PM 33.7667 -84.4500 180° South 148 170 5,100 -60 Level Atlanta TRACON
12:25PM 33.7333 -84.4333 157° South 148 170 5,000 -60 Descending Atlanta TRACON
12:26PM 33.6833 -84.4167 164° South 147 169 5,000  Level Atlanta TRACON
12:27PM 33.6500 -84.4000 157° South 156 180 5,000  Level Atlanta TRACON
12:28PM 33.6000 -84.4000 180° South 153 176 5,000  Level Atlanta TRACON
12:29PM 33.5667 -84.4000 180° South 146 168 5,000  Level Atlanta TRACON
12:30PM 33.5167 -84.4000 180° South 145 167 5,000  Level Atlanta TRACON
12:31PM 33.4833 -84.4000 180° South 142 163 5,100  Climbing Atlanta TRACON
12:32PM 33.4500 -84.3833 157° South 147 169 5,100  Level Atlanta TRACON
12:33PM 33.4000 -84.3667 164° South 147 169 5,100  Level Atlanta TRACON
12:34PM 33.3667 -84.3667 180° South 144 166 5,100  Level Atlanta TRACON
12:35PM 33.3333 -84.3500 157° South 146 168 5,100  Level Atlanta TRACON
12:36PM 33.2833 -84.3333 164° South 145 167 5,100 -60 Level Atlanta TRACON
12:37PM 33.2500 -84.3167 157° South 149 171 5,000 60 Descending Atlanta TRACON
12:38PM 33.2167 -84.3000 157° South 146 168 5,300 480 Climbing Atlanta TRACON
12:39PM 33.1833 -84.2667 140° Southeast 141 162 6,000 660 Climbing Atlanta TRACON
12:40PM 33.1500 -84.2333 140° Southeast 134 154 6,700 720 Climbing Atlanta TRACON
12:41PM 33.1333 -84.2000 121° Southeast 131 151 7,500 720 Climbing Atlanta TRACON
12:42PM 33.1000 -84.1667 140° Southeast 130 150 8,200 600 Climbing Atlanta TRACON
12:43PM 33.0833 -84.1333 121° Southeast 134 154 8,800 420 Climbing Atlanta TRACON
12:44PM 33.0500 -84.1000 140° Southeast 145 167 9,100 120 Climbing Atlanta TRACON
12:45PM 33.0333 -84.0667 121° Southeast 156 180 9,100  Level Atlanta TRACON
12:46PM 33.0000 -84.0333 140° Southeast 156 180 9,100  Level Atlanta TRACON
12:47PM 32.9667 -84.0000 140° Southeast 158 182 9,100  Level Atlanta TRACON
12:48PM 32.9333 -83.9500 128° Southeast 158 182 9,100  Level Atlanta TRACON
12:49PM 32.9000 -83.9167 140° Southeast 157 181 9,100  Level Atlanta TRACON
12:50PM 32.8833 -83.8833 121° Southeast 154 177 9,100  Level Atlanta TRACON
12:51PM 32.8500 -83.8500 140° Southeast 156 180 9,100  Level Atlanta TRACON
12:52PM 32.8167 -83.8167 140° Southeast 153 176 9,100  Level Atlanta TRACON
12:53PM 32.7833 -83.7667 128° Southeast 153 176 9,100  Level Atlanta TRACON
12:54PM 32.7500 -83.7333 140° Southeast 150 173 9,100  Level Atlanta TRACON
12:55PM 32.7333 -83.7000 121° Southeast 142 163 9,100  Level Atlanta TRACON
12:56PM 32.7000 -83.6667 140° Southeast 122 140 9,100  Level Atlanta TRACON
12:57PM 32.6500 -83.6500 164° South 129 148 9,100  Level Atlanta TRACON
12:58PM 32.6167 -83.6333 157° South 142 163 9,100  Level Atlanta TRACON
12:59PM 32.5667 -83.6167 164° South 149 171 9,100  Level Atlanta TRACON
01:00PM 32.5333 -83.6000 157° South 149 171 9,100  Level Atlanta TRACON
01:01PM 32.5000 -83.6000 180° South 149 171 9,100  Level Atlanta TRACON
01:02PM 32.4500 -83.5833 164° South 152 175 9,100  Level Atlanta TRACON
01:03PM 32.4167 -83.5667 157° South 153 176 9,100  Level Atlanta TRACON
01:04PM 32.3667 -83.5500 164° South 153 176 9,100  Level Atlanta TRACON
01:05PM 32.3339 -83.5392 164° South 152 175 9,100  Level Jacksonville Center
01:06PM 32.2964 -83.5292 167° South 152 175 9,100  Level Jacksonville Center
01:07PM 32.2547 -83.5189 168° South 152 175 9,100  Level Jacksonville Center
01:08PM 32.2131 -83.5039 163° South 152 175 9,100  Level Jacksonville Center
01:09PM 32.1819 -83.4719 139° Southeast 145 167 9,100  Level Jacksonville Center
01:10PM 32.1486 -83.4397 141° Southeast 150 173 9,100  Level Jacksonville Center
01:11PM 32.1153 -83.4078 141° Southeast 155 178 9,100  Level Jacksonville Center
01:12PM 32.0822 -83.3756 140° Southeast 155 178 9,100  Level Jacksonville Center
01:13PM 32.0508 -83.3436 139° Southeast 155 178 9,100  Level Jacksonville Center
01:14PM 32.0175 -83.3092 139° Southeast 155 178 9,100  Level Jacksonville Center
01:15PM 31.9844 -83.2747 139° Southeast 160 184 9,100  Level Jacksonville Center
01:16PM 31.9511 -83.2453 143° Southeast 160 184 9,100  Level Jacksonville Center
01:17PM 31.9197 -83.2108 137° Southeast 160 184 9,100  Level Jacksonville Center
01:18PM 31.8864 -83.1814 143° Southeast 160 184 9,100  Level Jacksonville Center
01:19PM 31.8553 -83.1469 137° Southeast 160 184 9,100  Level Jacksonville Center
01:20PM 31.8219 -83.1128 139° Southeast 160 184 9,100  Level Jacksonville Center
01:21PM 31.7886 -83.0808 141° Southeast 160 184 9,100  Level Jacksonville Center
01:22PM 31.7572 -83.0489 139° Southeast 160 184 9,100  Level Jacksonville Center
01:23PM 31.7258 -83.0172 139° Southeast 160 184 9,100  Level Jacksonville Center
01:24PM 31.6947 -82.9853 139° Southeast 160 184 9,100  Level Jacksonville Center
01:25PM 31.6614 -82.9511 139° Southeast 160 184 9,100  Level Jacksonville Center
01:26PM 31.6278 -82.9194 141° Southeast 160 184 9,100 -300 Level Jacksonville Center
01:27PM 31.5944 -82.8853 139° Southeast 160 184 8,600 -540 Descending Jacksonville Center
01:28PM 31.5589 -82.8536 143° Southeast 160 184 8,100 -300 Descending Jacksonville Center
01:29PM 31.5256 -82.8169 137° Southeast 160 184 8,100  Level Jacksonville Center
01:30PM 31.4942 -82.7853 139° Southeast 160 184 8,100  Level Jacksonville Center
01:31PM 31.4669 -82.7514 133° Southeast 160 184 8,100  Level Jacksonville Center
01:32PM 31.4356 -82.7172 137° Southeast 155 178 8,100  Level Jacksonville Center
01:33PM 31.4042 -82.6856 139° Southeast 155 178 8,100  Level Jacksonville Center
01:34PM 31.3750 -82.6492 133° Southeast 155 178 8,100  Level Jacksonville Center
01:35PM 31.3478 -82.6225 140° Southeast 149 171 8,100  Level Jacksonville Center
01:36PM 31.3164 -82.5911 139° Southeast 149 171 8,100  Level Jacksonville Center
01:37PM 31.2872 -82.5594 137° Southeast 149 171 8,100  Level Jacksonville Center
01:38PM 31.2619 -82.5256 131° Southeast 149 171 8,100  Level Jacksonville Center
01:39PM 31.2325 -82.4942 138° Southeast 144 166 8,100  Level Jacksonville Center
01:40PM 31.2011 -82.4628 139° Southeast 144 166 8,100  Level Jacksonville Center
01:41PM 31.1719 -82.4314 137° Southeast 144 166 8,100  Level Jacksonville Center
01:42PM 31.1592 -82.4144 131° Southeast 149 171 8,100  Level Jacksonville Center
01:42PM 31.1425 -82.3997 143° Southeast 144 166 8,100  Level Jacksonville Center
01:43PM 31.1300 -82.3806 127° Southeast 147 169 8,100  Level Jacksonville Center
01:43PM 31.1131 -82.3636 139° Southeast 144 166 8,100  Level Jacksonville Center
01:44PM 31.1006 -82.3492 135° Southeast 147 169 8,100  Level Jacksonville Center
01:45PM 31.0669 -82.3153 139° Southeast 148 170 8,100  Level Jacksonville Center
01:45PM 31.0522 -82.3008 140° Southeast 144 166 8,100  Level Jacksonville Center
01:46PM 31.0356 -82.2767 129° Southeast 149 171 8,100  Level Jacksonville Center
01:46PM 31.0228 -82.2672 148° Southeast 144 166 8,100  Level Jacksonville Center
01:47PM 31.0039 -82.2431 132° Southeast 149 171 8,100  Level Jacksonville Center
01:47PM 30.9914 -82.2358 154° Southeast 144 166 8,100  Level Jacksonville Center
01:48PM 30.9767 -82.2142 128° Southeast 149 171 8,100  Level Jacksonville Center
01:48PM 30.9619 -82.2022 145° Southeast 144 166 8,100  Level Jacksonville Center
01:49PM 30.9411 -82.1756 132° Southeast 148 170 8,100  Level Jacksonville Center
01:49PM 30.9325 -82.1661 137° Southeast 144 166 8,100  Level Jacksonville Center
01:50PM 30.9117 -82.1467 141° Southeast 147 169 8,100  Level Jacksonville Center
01:50PM 30.9031 -82.1372 137° Southeast 144 166 8,100  Level Jacksonville Center
01:51PM 30.8822 -82.1131 135° Southeast 145 167 8,100  Level Jacksonville Center
01:52PM 30.8589 -82.0842 133° Southeast 146 168 8,100 -300 Level Jacksonville Center
01:53PM 30.8358 -82.0361 119° Southeast 161 185 7,600 -600 Descending Jacksonville Center
01:54PM 30.8125 -81.9903 121° Southeast 157 181 6,900 -720 Descending Jacksonville Center
01:55PM 30.7892 -81.9519 125° Southeast 149 171 6,300 -660 Descending Jacksonville Center
01:56PM 30.7700 -81.9108 118° Southeast 152 175 5,700 -720 Descending Jacksonville Center
01:57PM 30.7469 -81.8700 123° Southeast 155 178 4,900 -720 Descending Jacksonville Center
01:58PM 30.7192 -81.8219 124° Southeast 151 174 4,200 -480 Descending Jacksonville Center
01:59PM 30.6836 -81.7958 148° Southeast 161 185 4,000 -60 Descending Jacksonville Center
02:00PM 30.6500 -81.7722 149° Southeast 135 155 4,100  Climbing Jacksonville Center
02:01PM 30.6206 -81.7483 145° Southeast 136 157 4,100 -420 Level Jacksonville Center
02:02PM 30.5889 -81.7197 142° Southeast 143 165 3,400 -780 Descending Jacksonville Center
02:03PM 30.5489 -81.6936 151° Southeast 158 182 2,600 -660 Descending Jacksonville Center
02:04PM 30.5175 -81.6653 142° Southeast 144 166 2,100 -300 Descending Jacksonville Center
02:05PM 30.4878 -81.6367 140° Southeast 131 151 2,100  Level Jacksonville Center
02:06PM 30.4542 -81.6131 149° Southeast 135 155 2,100 -60 Level Jacksonville Center
02:07PM 30.4269 -81.5917 146° Southeast 128 147 2,000 -360 Descending Jacksonville Center
02:08PM 30.3892 -81.5753 159° South 127 146 1,400 -540 Descending Jacksonville Center
02:09PM 30.3658 -81.5517 139° Southeast 114 131 900 -600 Descending Jacksonville Center
02:10PM 30.3469 -81.5278 132° Southeast 96 110 300 -600 Descending Jacksonville Center
02:12PM 30.3363 -81.5144 131° Southeast  Level Estimated
02:19PM 30.3363 -81.5144 131° Southeast  Level Estimated